Terminal Aerodrome Forecast
Issued by NWS Green Bay, WI

Home | Current Version | Previous Version | Text Only | Print | Product List | Glossary Off
Versions: 1 2 3 4 5 6 7 8 9 10 11 12 13 14 15 16 17 18

000
FTUS43 KGRB 201011 AAB
TAFGRB
TAF AMD
KGRB 201011Z 2010/2106 19005KT P6SM VCSH SCT012 BKN100
      TEMPO 2010/2012 BKN012
     FM201200 27007KT P6SM SCT030 BKN100
     FM201800 30007KT P6SM SCT030 BKN100
     FM210100 VRB03KT P6SM SKC=

USA.gov is the U.S. government's official web portal to all federal, state and local government web resources and services.